This is the latest recevied weather packets stored in our database for station/object KE4ODN. If no packets are shown the sender has not sent any weather packets the latest 10 day(s).
| Time | Temp. | Humidity | Pressure | Rain* | Wind** | Luminosity | Snow |
|---|---|---|---|---|---|---|---|
| 1778277604 | 17.78° C | 84% | 1013.5 hPa | 0 mm | - | 77 W/m² | - |
| 1778277145 | 17.78° C | 84% | 1013.5 hPa | 0 mm | - | 60 W/m² | - |
| 1778276425 | 17.78° C | 83% | 1013.5 hPa | 0 mm | - | 88 W/m² | - |
| 1778275924 | 17.78° C | 82% | 1013.6 hPa | 0 mm | - | 91 W/m² | - |
| 1778275204 | 17.78° C | 82% | 1013.6 hPa | 0 mm | - | 97 W/m² | - |
| 1778271364 | 18.33° C | 80% | 1013.8 hPa | 0 mm | - | 142 W/m² | - |
| 1778269204 | 18.33° C | 77% | 1014.2 hPa | 0 mm | - | 141 W/m² | - |
| 1778268244 | 18.33° C | 76% | 1014.4 hPa | 0 mm | - | 156 W/m² | - |
| 1778266804 | 18.33° C | 74% | 1014 hPa | 0 mm | - | 204 W/m² | - |
| 1778265844 | 18.33° C | 77% | 1014.2 hPa | 0 mm | - | 211 W/m² | - |
| 1778264884 | 18.33° C | 75% | 1014.5 hPa | 0 mm | - | 127 W/m² | - |
| 1778260084 | 18.89° C | 66% | 1016.2 hPa | 0 mm | - | 306 W/m² | - |
| 1778259124 | 18.33° C | 73% | 1016.1 hPa | 0 mm | - | 269 W/m² | - |
| 1778258644 | 18.33° C | 67% | 1016.4 hPa | 0 mm | - | 239 W/m² | - |
| 1778255524 | 18.33° C | 70% | 1016.8 hPa | 0 mm | - | 339 W/m² | - |
| 1778253844 | 17.78° C | 74% | 1016.9 hPa | 0 mm | - | 290 W/m² | - |
| 1778251924 | 16.67° C | 73% | 1016.9 hPa | 0 mm | - | 221 W/m² | - |
| 1778251444 | 16.67° C | 74% | 1017 hPa | 0 mm | - | 193 W/m² | - |
| 1778250964 | 16.67° C | 77% | 1017.1 hPa | 0 mm | - | 227 W/m² | - |
| 1778249524 | 16.11° C | 85% | 1017.3 hPa | 0 mm | - | 229 W/m² | - |
| 1778248804 | 15.56° C | 89% | 1017.4 hPa | 0 mm | - | 163 W/m² | - |
| 1778247604 | 15° C | 90% | 1017.7 hPa | 0 mm | - | 130 W/m² | - |
| 1778247364 | 15° C | 90% | 1017.7 hPa | 0 mm | - | 123 W/m² | - |
| 1778247124 | 15° C | 92% | 1017.6 hPa | 0 mm | - | 113 W/m² | - |
| 1778244505 | 13.33° C | 94% | 1017.4 hPa | 0 mm | - | 97 W/m² | - |
* Rain latest hour (hover to see other rain measurements)
** Current wind speed in m/s (hover to see current wind gust speed)